Time,TemperatureF,DewpointF,PressureIn,WindDirection,WindDirectionDegrees,WindSpeedMPH,WindSpeedGustMPH,Humidity,HourlyPrecipIn,Conditions,Clouds,dailyrainin,SolarRadiationWatts/m^2,SoftwareType,DateUTC
2013-08-21 00:04:00,77.0,76.0,-100.00,NE,40,0.0,1.0,97,0.00,,,0.01,0.000000,,2013-08-21 04:04:00,
2013-08-21 00:11:00,77.0,75.0,-100.00,ENE,66,2.0,4.0,93,0.00,,,-99.99,0.000000,,2013-08-21 04:11:00,
2013-08-21 00:44:00,77.0,75.0,-100.00,ENE,66,2.0,4.0,93,0.00,,,-99.99,0.000000,,2013-08-21 04:44:00,
2013-08-21 00:54:00,77.0,75.0,-100.00,ENE,66,2.0,4.0,93,0.00,,,-99.99,0.000000,,2013-08-21 04:54:00,
2013-08-21 01:02:00,77.0,75.0,-100.00,ENE,66,2.0,4.0,93,0.00,,,-99.99,0.000000,,2013-08-21 05:02:00,
2013-08-21 01:11:00,78.0,75.0,-100.00,ENE,66,2.0,7.0,91,0.00,,,0.01,0.000000,,2013-08-21 05:11:00,
2013-08-21 01:43:00,78.0,75.0,-100.00,ENE,66,2.0,7.0,91,0.00,,,0.01,0.000000,,2013-08-21 05:43:00,
2013-08-21 01:52:00,78.0,75.0,-100.00,ENE,66,2.0,7.0,91,0.00,,,0.01,0.000000,,2013-08-21 05:52:00,
2013-08-21 02:02:00,78.0,75.0,-100.00,ENE,66,2.0,7.0,91,0.00,,,0.01,0.000000,,2013-08-21 06:02:00,
2013-08-21 02:11:00,77.0,75.0,-100.00,NE,39,1.0,5.0,93,0.00,,,0.01,0.000000,,2013-08-21 06:11:00,
2013-08-21 02:42:00,77.0,75.0,-100.00,NE,39,1.0,5.0,93,0.00,,,0.01,0.000000,,2013-08-21 06:42:00,
2013-08-21 02:52:00,77.0,75.0,-100.00,NE,39,1.0,5.0,93,0.00,,,0.01,0.000000,,2013-08-21 06:52:00,
2013-08-21 03:02:00,77.0,75.0,-100.00,NE,39,1.0,5.0,93,0.00,,,0.01,0.000000,,2013-08-21 07:02:00,
2013-08-21 03:11:00,76.0,74.0,-100.00,NE,36,1.0,4.0,95,0.00,,,0.01,0.000000,,2013-08-21 07:11:00,
2013-08-21 03:42:00,76.0,74.0,-100.00,NE,36,1.0,4.0,95,0.00,,,0.01,0.000000,,2013-08-21 07:42:00,
2013-08-21 03:53:00,76.0,74.0,-100.00,NE,36,1.0,4.0,95,0.00,,,0.01,0.000000,,2013-08-21 07:53:00,
2013-08-21 04:03:00,76.0,74.0,-100.00,NE,36,1.0,4.0,95,0.00,,,0.01,0.000000,,2013-08-21 08:03:00,
2013-08-21 04:11:00,76.0,74.0,-100.00,NNE,17,1.0,5.0,95,0.00,,,0.01,0.000000,,2013-08-21 08:11:00,
2013-08-21 04:43:00,76.0,74.0,-100.00,NNE,17,1.0,5.0,95,0.00,,,0.01,0.000000,,2013-08-21 08:43:00,
2013-08-21 04:53:00,76.0,74.0,-100.00,NNE,17,1.0,5.0,95,0.00,,,0.01,0.000000,,2013-08-21 08:53:00,
2013-08-21 05:01:00,76.0,74.0,-100.00,NNE,17,1.0,5.0,95,0.00,,,0.01,0.000000,,2013-08-21 09:01:00,
2013-08-21 05:11:00,75.0,74.0,-100.00,NNE,22,0.0,3.0,96,0.00,,,0.00,0.000000,,2013-08-21 09:11:00,
2013-08-21 05:43:00,75.0,74.0,-100.00,NNE,22,0.0,3.0,96,0.00,,,0.00,0.000000,,2013-08-21 09:43:00,
2013-08-21 05:54:00,75.0,74.0,-100.00,NNE,22,0.0,3.0,96,0.00,,,0.00,0.000000,,2013-08-21 09:54:00,
2013-08-21 06:03:00,75.0,74.0,-100.00,NNE,22,0.0,3.0,96,0.00,,,0.00,0.000000,,2013-08-21 10:03:00,
2013-08-21 06:11:00,75.0,74.0,-100.00,ENE,59,0.0,4.0,96,0.00,,,0.00,0.000000,,2013-08-21 10:11:00,
2013-08-21 06:43:00,75.0,74.0,-100.00,ENE,59,0.0,4.0,96,0.00,,,0.00,0.000000,,2013-08-21 10:43:00,
2013-08-21 06:53:00,75.0,74.0,-100.00,ENE,59,0.0,4.0,96,0.00,,,0.00,0.000000,,2013-08-21 10:53:00,
2013-08-21 07:03:00,75.0,74.0,-100.00,ENE,59,0.0,4.0,96,0.00,,,0.00,0.000000,,2013-08-21 11:03:00,
2013-08-21 07:11:00,75.0,74.0,-100.00,NE,43,1.0,4.0,96,0.00,,,0.00,0.000000,,2013-08-21 11:11:00,
2013-08-21 07:42:00,75.0,74.0,-100.00,NE,43,1.0,4.0,96,0.00,,,0.00,0.000000,,2013-08-21 11:42:00,
2013-08-21 07:53:00,75.0,74.0,-100.00,NE,43,1.0,4.0,96,0.00,,,0.00,0.000000,,2013-08-21 11:53:00,
2013-08-21 08:01:00,75.0,74.0,-100.00,NE,43,1.0,4.0,96,0.00,,,0.00,0.000000,,2013-08-21 12:01:00,
2013-08-21 08:11:00,78.0,76.0,-100.00,ENE,58,1.0,4.0,94,0.00,,,0.00,39.000000,,2013-08-21 12:11:00,
2013-08-21 08:42:00,78.0,76.0,-100.00,ENE,58,1.0,4.0,94,0.00,,,0.00,39.000000,,2013-08-21 12:42:00,
2013-08-21 08:52:00,78.0,76.0,-100.00,ENE,58,1.0,4.0,94,0.00,,,0.00,39.000000,,2013-08-21 12:52:00,
2013-08-21 09:02:00,78.0,76.0,-100.00,ENE,58,1.0,4.0,94,0.00,,,0.00,39.000000,,2013-08-21 13:02:00,
2013-08-21 09:11:00,83.0,77.0,-100.00,ENE,57,4.0,8.0,81,0.00,,,0.00,114.000000,,2013-08-21 13:11:00,
2013-08-21 09:42:00,83.0,77.0,-100.00,ENE,57,4.0,8.0,81,0.00,,,0.00,114.000000,,2013-08-21 13:42:00,
2013-08-21 09:52:00,83.0,77.0,-100.00,ENE,57,4.0,8.0,81,0.00,,,0.00,114.000000,,2013-08-21 13:52:00,
2013-08-21 10:02:00,83.0,77.0,-100.00,ENE,57,4.0,8.0,81,0.00,,,0.00,114.000000,,2013-08-21 14:02:00,
2013-08-21 10:11:00,89.0,76.0,-100.00,ENE,64,3.0,8.0,66,0.00,,,0.00,456.000000,,2013-08-21 14:11:00,
2013-08-21 10:42:00,89.0,76.0,-100.00,ENE,64,3.0,8.0,66,0.00,,,0.00,456.000000,,2013-08-21 14:42:00,
2013-08-21 10:52:00,89.0,76.0,-100.00,ENE,64,3.0,8.0,66,0.00,,,0.00,456.000000,,2013-08-21 14:52:00,
2013-08-21 11:01:00,89.0,76.0,-100.00,ENE,64,3.0,8.0,66,0.00,,,0.00,456.000000,,2013-08-21 15:01:00,
2013-08-21 11:11:00,89.0,75.0,-100.00,ENE,62,5.0,10.0,63,0.00,,,0.00,567.000000,,2013-08-21 15:11:00,
2013-08-21 11:43:00,89.0,75.0,-100.00,ENE,62,5.0,10.0,63,0.00,,,0.00,567.000000,,2013-08-21 15:43:00,
2013-08-21 11:55:00,89.0,75.0,-100.00,ENE,62,5.0,10.0,63,0.00,,,0.00,567.000000,,2013-08-21 15:55:00,
2013-08-21 12:04:00,89.0,75.0,-100.00,ENE,62,5.0,10.0,63,0.00,,,0.00,567.000000,,2013-08-21 16:04:00,
2013-08-21 12:11:00,92.0,75.0,-100.00,East,99,4.0,10.0,57,0.00,,,0.00,784.000000,,2013-08-21 16:11:00,
2013-08-21 12:43:00,92.0,75.0,-100.00,East,99,4.0,10.0,57,0.00,,,0.00,784.000000,,2013-08-21 16:43:00,
2013-08-21 12:53:00,92.0,75.0,-100.00,East,99,4.0,10.0,57,0.00,,,0.00,784.000000,,2013-08-21 16:53:00,
2013-08-21 13:04:00,92.0,75.0,-100.00,East,99,4.0,10.0,57,0.00,,,0.00,784.000000,,2013-08-21 17:04:00,
2013-08-21 13:11:00,88.0,77.0,-100.00,North,1,4.0,14.0,70,0.03,,,0.03,691.000000,,2013-08-21 17:11:00,
2013-08-21 13:43:00,88.0,77.0,-100.00,North,1,4.0,14.0,70,0.03,,,0.03,691.000000,,2013-08-21 17:43:00,
2013-08-21 13:53:00,88.0,77.0,-100.00,North,1,4.0,14.0,70,0.03,,,0.03,691.000000,,2013-08-21 17:53:00,
2013-08-21 14:03:00,88.0,77.0,-100.00,North,1,4.0,14.0,70,0.03,,,0.03,691.000000,,2013-08-21 18:03:00,
2013-08-21 14:11:00,88.0,78.0,-100.00,North,6,4.0,11.0,72,0.00,,,0.03,541.000000,,2013-08-21 18:11:00,
2013-08-21 14:42:00,88.0,78.0,-100.00,North,6,4.0,11.0,72,0.00,,,0.03,541.000000,,2013-08-21 18:42:00,
2013-08-21 14:52:00,88.0,78.0,-100.00,North,6,4.0,11.0,72,0.00,,,0.03,541.000000,,2013-08-21 18:52:00,
2013-08-21 15:01:00,88.0,78.0,-100.00,North,6,4.0,11.0,72,0.00,,,0.03,541.000000,,2013-08-21 19:01:00,
2013-08-21 15:11:00,93.0,76.0,-100.00,ENE,64,5.0,14.0,58,0.00,,,0.03,758.000000,,2013-08-21 19:11:00,
2013-08-21 15:42:00,93.0,76.0,-100.00,ENE,64,5.0,14.0,58,0.00,,,0.03,758.000000,,2013-08-21 19:42:00,
2013-08-21 15:53:00,93.0,76.0,-100.00,ENE,64,5.0,14.0,58,0.00,,,0.03,758.000000,,2013-08-21 19:53:00,
2013-08-21 16:03:00,93.0,76.0,-100.00,ENE,64,5.0,14.0,58,0.00,,,0.03,758.000000,,2013-08-21 20:03:00,
2013-08-21 16:11:00,87.0,74.0,-100.00,East,81,4.0,10.0,65,-99.99,,,0.03,554.000000,,2013-08-21 20:11:00,
2013-08-21 16:43:00,87.0,74.0,-100.00,East,81,4.0,10.0,65,-99.99,,,0.03,554.000000,,2013-08-21 20:43:00,
2013-08-21 16:52:00,87.0,74.0,-100.00,East,81,4.0,10.0,65,-99.99,,,0.03,554.000000,,2013-08-21 20:52:00,
2013-08-21 17:02:00,87.0,74.0,-100.00,East,81,4.0,10.0,65,-99.99,,,0.03,554.000000,,2013-08-21 21:02:00,
2013-08-21 17:11:00,85.0,79.0,-100.00,ENE,74,0.0,5.0,82,0.01,,,0.04,126.000000,,2013-08-21 21:11:00,
2013-08-21 17:45:00,85.0,79.0,-100.00,ENE,74,0.0,5.0,82,0.01,,,0.04,126.000000,,2013-08-21 21:45:00,
2013-08-21 17:55:00,85.0,79.0,-100.00,ENE,74,0.0,5.0,82,0.01,,,0.04,126.000000,,2013-08-21 21:55:00,
2013-08-21 18:04:00,85.0,79.0,-100.00,ENE,74,0.0,5.0,82,0.01,,,0.04,126.000000,,2013-08-21 22:04:00,
2013-08-21 18:11:00,80.0,73.0,-100.00,ENE,77,4.0,14.0,78,0.00,,,0.04,92.000000,,2013-08-21 22:11:00,
2013-08-21 18:44:00,80.0,73.0,-100.00,ENE,77,4.0,14.0,78,0.00,,,0.04,92.000000,,2013-08-21 22:44:00,
2013-08-21 18:53:00,80.0,73.0,-100.00,ENE,77,4.0,14.0,78,0.00,,,0.04,92.000000,,2013-08-21 22:53:00,
2013-08-21 19:04:00,80.0,73.0,-100.00,ENE,77,4.0,14.0,78,0.00,,,0.04,92.000000,,2013-08-21 23:04:00,
2013-08-21 19:11:00,77.0,74.0,-100.00,ENE,71,1.0,10.0,91,0.01,,,0.05,36.000000,,2013-08-21 23:11:00,
2013-08-21 19:43:00,77.0,74.0,-100.00,ENE,71,1.0,10.0,91,0.01,,,0.05,36.000000,,2013-08-21 23:43:00,
2013-08-21 19:53:00,77.0,74.0,-100.00,ENE,71,1.0,10.0,91,0.01,,,0.05,36.000000,,2013-08-21 23:53:00,
2013-08-21 20:02:00,77.0,74.0,-100.00,ENE,71,1.0,10.0,91,0.01,,,0.05,36.000000,,2013-08-22 00:02:00,
2013-08-21 20:11:00,76.0,74.0,-100.00,ENE,61,1.0,5.0,94,0.00,,,0.05,9.000000,,2013-08-22 00:11:00,
2013-08-21 20:42:00,76.0,74.0,-100.00,ENE,61,1.0,5.0,94,0.00,,,0.05,9.000000,,2013-08-22 00:42:00,
2013-08-21 20:52:00,76.0,74.0,-100.00,ENE,61,1.0,5.0,94,0.00,,,0.05,9.000000,,2013-08-22 00:52:00,
2013-08-21 21:02:00,76.0,74.0,-100.00,ENE,61,1.0,5.0,94,0.00,,,0.05,9.000000,,2013-08-22 01:02:00,
2013-08-21 21:11:00,77.0,75.0,-100.00,ESE,121,0.0,3.0,95,0.00,,,0.05,0.000000,,2013-08-22 01:11:00,
2013-08-21 21:42:00,77.0,75.0,-100.00,ESE,121,0.0,3.0,95,0.00,,,0.05,0.000000,,2013-08-22 01:42:00,
2013-08-21 21:52:00,77.0,75.0,-100.00,ESE,121,0.0,3.0,95,0.00,,,0.05,0.000000,,2013-08-22 01:52:00,
2013-08-21 22:03:00,77.0,75.0,-100.00,ESE,121,0.0,3.0,95,0.00,,,0.05,0.000000,,2013-08-22 02:03:00,
2013-08-21 22:11:00,77.0,76.0,-100.00,NE,56,1.0,3.0,96,0.00,,,0.05,0.000000,,2013-08-22 02:11:00,
2013-08-21 22:52:00,77.0,76.0,-100.00,NE,56,1.0,3.0,96,0.00,,,0.05,0.000000,,2013-08-22 02:52:00,
2013-08-21 23:02:00,77.0,76.0,-100.00,NE,56,1.0,3.0,96,0.00,,,0.05,0.000000,,2013-08-22 03:02:00,
2013-08-21 23:11:00,77.0,76.0,-100.00,NNE,23,0.0,3.0,96,0.00,,,0.05,0.000000,,2013-08-22 03:11:00,
2013-08-21 23:45:00,77.0,76.0,-100.00,NNE,23,0.0,3.0,96,0.00,,,0.05,0.000000,,2013-08-22 03:45:00,
2013-08-21 23:54:00,77.0,76.0,-100.00,NNE,23,0.0,3.0,96,0.00,,,0.05,0.000000,,2013-08-22 03:54:00,